createdAt,value
2019-01-29T00:03:48.516Z,69.81
2019-01-29T00:08:55.177Z,68.12
2019-01-29T00:14:02.069Z,66.94
2019-01-29T00:19:08.760Z,67.78
2019-01-29T00:24:15.674Z,67.04
2019-01-29T00:29:23.633Z,68.86
2019-01-29T00:34:32.161Z,69.24
2019-01-29T00:39:40.421Z,69.75
2019-01-29T00:44:48.329Z,70.03
2019-01-29T00:49:55.070Z,70.02
2019-01-29T00:55:01.581Z,69.50
2019-01-29T01:00:13.945Z,69.21
2019-01-29T01:05:20.433Z,70.07
2019-01-29T01:10:28.294Z,68.62
2019-01-29T01:15:36.559Z,68.21
2019-01-29T01:20:43.533Z,68.92
2019-01-29T01:25:51.305Z,70.11
2019-01-29T01:30:58.401Z,70.75
2019-01-29T01:36:07.205Z,70.30
2019-01-29T01:41:14.077Z,70.68
2019-01-29T01:46:22.193Z,70.41
2019-01-29T01:51:29.063Z,70.29
2019-01-29T01:56:35.858Z,69.69
2019-01-29T02:01:43.453Z,70.46
2019-01-29T02:06:50.739Z,71.01
2019-01-29T02:11:57.379Z,70.83
2019-01-29T02:17:05.607Z,68.39
2019-01-29T02:22:11.929Z,69.23
2019-01-29T02:27:20.505Z,69.72
2019-01-29T02:32:28.532Z,68.71
2019-01-29T02:37:38.033Z,69.08
2019-01-29T02:42:44.578Z,68.52
2019-01-29T02:47:51.478Z,68.74
2019-01-29T02:52:58.258Z,67.67
2019-01-29T02:58:05.011Z,68.72
2019-01-29T03:03:13.567Z,68.88
2019-01-29T03:08:20.295Z,69.68
2019-01-29T03:13:28.307Z,70.50
2019-01-29T03:18:36.088Z,69.14
2019-01-29T03:23:42.548Z,69.85
2019-01-29T03:28:50.300Z,70.83
2019-01-29T03:33:56.842Z,71.35
2019-01-29T03:39:04.891Z,71.08
2019-01-29T03:44:12.773Z,70.61
2019-01-29T03:49:19.194Z,70.30
2019-01-29T03:54:28.441Z,69.94
2019-01-29T03:59:39.146Z,70.18
2019-01-29T04:04:46.709Z,69.60
2019-01-29T04:09:53.987Z,69.30
2019-01-29T04:15:02.144Z,69.61
2019-01-29T04:20:13.065Z,70.49
2019-01-29T04:25:20.984Z,69.93
2019-01-29T04:30:28.682Z,69.79
2019-01-29T04:35:36.801Z,69.35
2019-01-29T04:40:47.983Z,68.53
2019-01-29T04:45:56.435Z,67.73
2019-01-29T04:51:03.555Z,67.32
2019-01-29T04:56:11.347Z,66.29
2019-01-29T05:01:19.502Z,66.45
2019-01-29T05:06:26.799Z,66.14
2019-01-29T05:11:34.446Z,66.92
2019-01-29T05:16:42.785Z,66.91
2019-01-29T05:21:52.543Z,65.16
2019-01-29T05:27:00.790Z,65.07
2019-01-29T05:32:08.234Z,64.93
2019-01-29T05:37:15.935Z,65.50
2019-01-29T05:42:23.944Z,64.88
2019-01-29T05:47:31.107Z,64.57
2019-01-29T05:52:38.825Z,65.07
2019-01-29T05:57:49.169Z,65.44
2019-01-29T06:02:57.467Z,65.17
2019-01-29T06:08:08.201Z,64.84
2019-01-29T06:13:17.845Z,65.73
2019-01-29T06:18:26.912Z,64.46
2019-01-29T06:23:33.713Z,64.67
2019-01-29T06:28:42.446Z,64.01
2019-01-29T06:33:50.484Z,64.41
2019-01-29T06:38:58.037Z,64.17
2019-01-29T06:44:05.012Z,63.43
2019-01-29T06:49:13.654Z,64.14
2019-01-29T06:54:22.900Z,63.38
2019-01-29T06:59:31.494Z,63.41
2019-01-29T07:04:39.665Z,63.31
2019-01-29T07:09:48.019Z,64.10
2019-01-29T07:14:55.264Z,64.88
2019-01-29T07:20:03.634Z,63.79
2019-01-29T07:25:12.091Z,63.62
2019-01-29T07:30:20.045Z,64.94
2019-01-29T07:35:27.312Z,66.54
2019-01-29T07:40:35.571Z,66.50
2019-01-29T07:45:42.558Z,65.36
2019-01-29T07:50:50.146Z,66.40
2019-01-29T07:56:01.584Z,66.31
2019-01-29T08:01:09.070Z,67.83
2019-01-29T08:06:18.190Z,65.92
2019-01-29T08:11:26.004Z,64.92
2019-01-29T08:16:34.775Z,63.90
2019-01-29T08:21:43.478Z,67.55
2019-01-29T08:26:51.362Z,65.86
2019-01-29T08:31:59.676Z,66.42
2019-01-29T08:37:07.985Z,67.20
2019-01-29T08:42:15.643Z,65.42
2019-01-29T08:47:24.317Z,65.22
2019-01-29T08:52:33.153Z,65.00
2019-01-29T08:57:41.191Z,65.80
2019-01-29T09:02:48.573Z,65.74
2019-01-29T09:07:55.360Z,65.31
2019-01-29T09:13:03.553Z,64.18
2019-01-29T09:18:11.015Z,64.22
2019-01-29T09:23:18.149Z,63.11
2019-01-29T09:28:26.372Z,64.04
2019-01-29T09:33:34.683Z,64.52
2019-01-29T09:38:41.048Z,66.23
2019-01-29T09:43:48.353Z,65.36
2019-01-29T09:48:54.765Z,65.24
2019-01-29T09:54:01.384Z,65.93
2019-01-29T09:59:09.439Z,65.73
2019-01-29T10:04:17.880Z,64.40
2019-01-29T10:09:25.434Z,62.77
2019-01-29T10:14:34.169Z,62.00
2019-01-29T10:19:41.929Z,62.60
2019-01-29T10:24:49.102Z,63.47
2019-01-29T10:29:59.227Z,61.74
2019-01-29T10:35:10.366Z,61.97
2019-01-29T10:40:20.249Z,63.03
2019-01-29T10:45:30.411Z,65.62
2019-01-29T10:50:41.733Z,64.85
2019-01-29T10:55:49.599Z,63.98
2019-01-29T11:00:58.068Z,60.30
2019-01-29T11:06:05.955Z,61.90
2019-01-29T11:11:14.181Z,62.36
2019-01-29T11:16:20.960Z,60.81
2019-01-29T11:21:27.968Z,61.84
2019-01-29T11:26:37.547Z,62.10
2019-01-29T11:31:45.024Z,62.95
2019-01-29T11:36:52.208Z,61.93
2019-01-29T11:42:01.225Z,62.02
2019-01-29T11:47:09.544Z,63.06
2019-01-29T11:52:17.195Z,63.16
2019-01-29T11:57:24.771Z,63.92
2019-01-29T12:02:32.421Z,62.49
2019-01-29T12:07:40.264Z,61.48
2019-01-29T12:12:48.834Z,61.88
2019-01-29T12:17:58.263Z,62.45
2019-01-29T12:23:06.487Z,61.95
2019-01-29T12:28:13.921Z,61.19
2019-01-29T12:33:20.332Z,59.58
2019-01-29T12:38:28.220Z,58.14
2019-01-29T12:43:37.271Z,56.94
2019-01-29T12:48:45.064Z,58.43
2019-01-29T12:53:52.893Z,58.35
2019-01-29T12:59:00.732Z,57.86
2019-01-29T13:04:08.574Z,57.60
2019-01-29T13:09:17.292Z,58.44
2019-01-29T13:14:25.138Z,56.35
2019-01-29T13:19:33.028Z,55.62
2019-01-29T13:24:39.949Z,56.04
2019-01-29T13:29:47.254Z,58.89
2019-01-29T13:34:54.620Z,58.55
2019-01-29T13:40:03.230Z,58.49
2019-01-29T13:45:16.471Z,56.51
2019-01-29T13:50:29.868Z,57.67
2019-01-29T13:55:39.394Z,57.80
2019-01-29T14:00:47.218Z,58.67
2019-01-29T14:05:55.924Z,58.13
2019-01-29T14:11:05.788Z,58.32
2019-01-29T14:16:12.721Z,58.91
2019-01-29T14:21:19.384Z,57.44
2019-01-29T14:26:25.873Z,57.34
2019-01-29T14:31:31.677Z,57.04
2019-01-29T14:36:37.717Z,56.39
2019-01-29T14:41:45.097Z,56.47
2019-01-29T14:46:51.608Z,56.33
2019-01-29T14:51:58.049Z,56.22
2019-01-29T14:57:05.535Z,56.28
2019-01-29T15:02:11.318Z,56.77
2019-01-29T15:07:18.705Z,56.23
2019-01-29T15:12:25.268Z,57.76
2019-01-29T15:17:33.086Z,57.11
2019-01-29T15:22:40.582Z,57.38
2019-01-29T15:27:48.749Z,57.48
2019-01-29T15:32:54.667Z,57.58
2019-01-29T15:38:01.926Z,57.55
2019-01-29T15:43:09.114Z,57.28
2019-01-29T15:48:15.387Z,57.62
2019-01-29T15:53:23.168Z,57.47
2019-01-29T15:58:29.239Z,57.31
2019-01-29T16:03:35.425Z,57.31
2019-01-29T16:08:44.055Z,57.36
2019-01-29T16:13:53.113Z,57.48
2019-01-29T16:18:59.233Z,57.94
2019-01-29T16:24:05.355Z,57.64
2019-01-29T16:29:11.357Z,57.79
2019-01-29T16:34:17.380Z,57.61
2019-01-29T16:39:25.313Z,57.56
2019-01-29T16:44:31.755Z,57.69
2019-01-29T16:49:38.261Z,57.78
2019-01-29T16:54:44.703Z,57.44
2019-01-29T16:59:50.416Z,57.64
2019-01-29T17:04:58.009Z,57.48
2019-01-29T17:10:05.456Z,57.21
2019-01-29T17:15:14.789Z,56.96
2019-01-29T17:20:26.726Z,56.96
2019-01-29T17:25:33.176Z,57.87
2019-01-29T17:30:42.614Z,57.88
2019-01-29T17:35:49.643Z,57.81
2019-01-29T17:40:55.699Z,57.94
2019-01-29T17:46:02.115Z,57.94
2019-01-29T17:51:09.532Z,58.04
2019-01-29T17:56:15.562Z,58.18
2019-01-29T18:01:22.292Z,58.09
2019-01-29T18:06:28.508Z,57.72
2019-01-29T18:11:34.624Z,57.98
2019-01-29T18:16:40.651Z,58.03
2019-01-29T18:21:56.307Z,57.98
2019-01-29T18:26:55.828Z,58.41
2019-01-29T18:32:01.508Z,58.73
2019-01-29T18:37:08.883Z,58.69
2019-01-29T18:42:16.170Z,58.56
2019-01-29T18:47:23.535Z,58.91
2019-01-29T18:52:29.160Z,58.09
2019-01-29T18:57:34.908Z,58.13
2019-01-29T19:02:41.192Z,58.21
2019-01-29T19:07:48.327Z,58.44
2019-01-29T19:12:56.195Z,58.21
2019-01-29T19:18:01.793Z,57.83
2019-01-29T19:23:08.147Z,57.92
2019-01-29T19:28:21.755Z,57.85
2019-01-29T19:33:22.717Z,57.30
2019-01-29T19:38:29.644Z,57.83
2019-01-29T19:43:35.818Z,57.78
2019-01-29T19:48:42.450Z,57.90
2019-01-29T19:53:48.861Z,57.85
2019-01-29T19:58:54.928Z,57.37
2019-01-29T20:04:01.123Z,56.97
2019-01-29T20:09:10.883Z,56.66
2019-01-29T20:14:16.834Z,56.90
2019-01-29T20:19:22.824Z,57.07
2019-01-29T20:24:28.682Z,56.82
2019-01-29T20:29:35.102Z,57.22
2019-01-29T20:34:41.120Z,57.24
2019-01-29T20:39:48.806Z,57.48
2019-01-29T20:44:54.396Z,57.42
2019-01-29T20:50:00.685Z,57.21
2019-01-29T20:55:08.852Z,57.54
2019-01-29T21:00:26.698Z,57.24
2019-01-29T21:05:32.686Z,57.60
2019-01-29T21:10:39.743Z,58.36
2019-01-29T21:15:46.042Z,57.09
2019-01-29T21:20:57.149Z,57.27
2019-01-29T21:26:02.954Z,57.41
2019-01-29T21:31:10.827Z,57.03
2019-01-29T21:36:16.638Z,57.18
2019-01-29T21:41:22.823Z,57.73
2019-01-29T21:46:29.707Z,57.38
2019-01-29T21:51:35.707Z,56.79
2019-01-29T21:56:41.957Z,57.13
2019-01-29T22:01:47.726Z,56.98
2019-01-29T22:06:54.008Z,57.08
2019-01-29T22:12:00.246Z,57.33
2019-01-29T22:17:06.008Z,57.47
2019-01-29T22:22:11.929Z,57.27
2019-01-29T22:27:17.878Z,55.34
2019-01-29T22:32:23.763Z,56.00
2019-01-29T22:37:30.312Z,55.72
2019-01-29T22:42:37.878Z,55.79
2019-01-29T22:47:44.058Z,55.72
2019-01-29T22:52:49.885Z,56.20
2019-01-29T22:57:55.665Z,56.39
2019-01-29T23:03:01.683Z,56.05
2019-01-29T23:08:07.620Z,56.14
2019-01-29T23:13:14.372Z,56.41
2019-01-29T23:18:20.240Z,56.77
2019-01-29T23:23:25.899Z,56.76
2019-01-29T23:28:31.640Z,56.92
2019-01-29T23:33:38.019Z,56.95
2019-01-29T23:38:43.684Z,56.89
2019-01-29T23:43:49.900Z,57.43
2019-01-29T23:48:55.749Z,58.05
2019-01-29T23:54:01.842Z,57.07
2019-01-29T23:59:08.063Z,57.13
